sensor_id;sensor_type;location;lat;lon;timestamp;P1;durP1;ratioP1;P2;durP2;ratioP2
35326;SDS011;21436;52.348;20.928;2023-07-31T00:00:25;6.15;;;3.10;;
35326;SDS011;21436;52.348;20.928;2023-07-31T00:03:12;3.90;;;2.95;;
35326;SDS011;21436;52.348;20.928;2023-07-31T00:05:40;5.75;;;3.33;;
35326;SDS011;21436;52.348;20.928;2023-07-31T00:08:07;3.88;;;3.10;;
35326;SDS011;21436;52.348;20.928;2023-07-31T00:10:35;3.15;;;2.85;;
35326;SDS011;21436;52.348;20.928;2023-07-31T00:13:02;7.28;;;3.20;;
35326;SDS011;21436;52.348;20.928;2023-07-31T00:15:30;4.90;;;2.90;;
35326;SDS011;21436;52.348;20.928;2023-07-31T00:17:57;6.93;;;2.75;;
35326;SDS011;21436;52.348;20.928;2023-07-31T00:20:25;4.68;;;3.50;;
35326;SDS011;21436;52.348;20.928;2023-07-31T00:22:53;3.97;;;3.00;;
35326;SDS011;21436;52.348;20.928;2023-07-31T00:25:20;4.22;;;3.05;;
35326;SDS011;21436;52.348;20.928;2023-07-31T00:27:47;3.72;;;2.78;;
35326;SDS011;21436;52.348;20.928;2023-07-31T00:30:15;3.70;;;3.30;;
35326;SDS011;21436;52.348;20.928;2023-07-31T00:32:43;5.75;;;2.97;;
35326;SDS011;21436;52.348;20.928;2023-07-31T00:35:10;4.57;;;3.10;;
35326;SDS011;21436;52.348;20.928;2023-07-31T00:37:38;4.45;;;3.20;;
35326;SDS011;21436;52.348;20.928;2023-07-31T00:40:06;4.78;;;2.95;;
35326;SDS011;21436;52.348;20.928;2023-07-31T00:42:34;3.95;;;2.80;;
35326;SDS011;21436;52.348;20.928;2023-07-31T00:45:01;5.32;;;3.38;;
35326;SDS011;21436;52.348;20.928;2023-07-31T00:47:30;3.25;;;2.95;;
35326;SDS011;21436;52.348;20.928;2023-07-31T00:49:57;3.72;;;2.80;;
35326;SDS011;21436;52.348;20.928;2023-07-31T00:52:25;4.32;;;3.38;;
35326;SDS011;21436;52.348;20.928;2023-07-31T00:54:53;3.88;;;3.17;;
35326;SDS011;21436;52.348;20.928;2023-07-31T00:57:20;3.30;;;2.90;;
35326;SDS011;21436;52.348;20.928;2023-07-31T00:59:48;5.45;;;2.92;;
35326;SDS011;21436;52.348;20.928;2023-07-31T01:02:15;5.85;;;2.85;;
35326;SDS011;21436;52.348;20.928;2023-07-31T01:04:43;5.32;;;3.08;;
35326;SDS011;21436;52.348;20.928;2023-07-31T01:07:13;4.68;;;2.95;;
35326;SDS011;21436;52.348;20.928;2023-07-31T01:09:46;3.72;;;2.63;;
35326;SDS011;21436;52.348;20.928;2023-07-31T01:12:18;5.05;;;2.60;;
35326;SDS011;21436;52.348;20.928;2023-07-31T01:14:51;4.97;;;2.97;;
35326;SDS011;21436;52.348;20.928;2023-07-31T01:17:32;3.42;;;2.80;;
35326;SDS011;21436;52.348;20.928;2023-07-31T01:20:01;5.82;;;2.75;;
35326;SDS011;21436;52.348;20.928;2023-07-31T01:22:39;3.45;;;3.13;;
35326;SDS011;21436;52.348;20.928;2023-07-31T01:28:19;4.75;;;2.90;;
35326;SDS011;21436;52.348;20.928;2023-07-31T01:30:49;4.18;;;3.42;;
35326;SDS011;21436;52.348;20.928;2023-07-31T01:33:17;13.55;;;3.67;;
35326;SDS011;21436;52.348;20.928;2023-07-31T01:35:45;6.55;;;3.20;;
35326;SDS011;21436;52.348;20.928;2023-07-31T01:38:14;3.70;;;2.95;;
35326;SDS011;21436;52.348;20.928;2023-07-31T01:40:41;4.82;;;3.10;;
35326;SDS011;21436;52.348;20.928;2023-07-31T01:43:09;4.00;;;3.30;;
35326;SDS011;21436;52.348;20.928;2023-07-31T01:45:37;8.13;;;3.58;;
35326;SDS011;21436;52.348;20.928;2023-07-31T01:48:04;5.47;;;3.38;;
35326;SDS011;21436;52.348;20.928;2023-07-31T01:50:32;4.30;;;3.63;;
35326;SDS011;21436;52.348;20.928;2023-07-31T01:52:59;4.88;;;3.30;;
35326;SDS011;21436;52.348;20.928;2023-07-31T01:55:27;5.32;;;3.60;;
35326;SDS011;21436;52.348;20.928;2023-07-31T01:57:54;4.57;;;3.53;;
35326;SDS011;21436;52.348;20.928;2023-07-31T02:00:22;7.40;;;3.72;;
35326;SDS011;21436;52.348;20.928;2023-07-31T02:02:49;4.82;;;3.63;;
35326;SDS011;21436;52.348;20.928;2023-07-31T02:05:19;8.13;;;3.95;;
35326;SDS011;21436;52.348;20.928;2023-07-31T02:07:46;11.88;;;4.07;;
35326;SDS011;21436;52.348;20.928;2023-07-31T02:10:14;7.43;;;3.92;;
35326;SDS011;21436;52.348;20.928;2023-07-31T02:12:42;3.65;;;2.97;;
35326;SDS011;21436;52.348;20.928;2023-07-31T02:15:09;5.22;;;3.10;;
35326;SDS011;21436;52.348;20.928;2023-07-31T02:17:37;5.05;;;3.40;;
35326;SDS011;21436;52.348;20.928;2023-07-31T02:20:05;4.65;;;3.60;;
35326;SDS011;21436;52.348;20.928;2023-07-31T02:22:33;5.85;;;3.78;;
35326;SDS011;21436;52.348;20.928;2023-07-31T02:25:02;4.72;;;3.50;;
35326;SDS011;21436;52.348;20.928;2023-07-31T02:27:29;5.88;;;3.47;;
35326;SDS011;21436;52.348;20.928;2023-07-31T02:29:57;6.00;;;3.40;;
35326;SDS011;21436;52.348;20.928;2023-07-31T02:32:26;7.20;;;3.85;;
35326;SDS011;21436;52.348;20.928;2023-07-31T02:34:54;5.35;;;3.83;;
35326;SDS011;21436;52.348;20.928;2023-07-31T02:37:21;5.93;;;4.18;;
35326;SDS011;21436;52.348;20.928;2023-07-31T02:39:48;6.80;;;4.05;;
35326;SDS011;21436;52.348;20.928;2023-07-31T02:42:16;5.82;;;4.40;;
35326;SDS011;21436;52.348;20.928;2023-07-31T02:44:43;4.50;;;3.67;;
35326;SDS011;21436;52.348;20.928;2023-07-31T02:47:11;5.65;;;4.72;;
35326;SDS011;21436;52.348;20.928;2023-07-31T02:49:38;5.60;;;4.15;;
35326;SDS011;21436;52.348;20.928;2023-07-31T02:52:06;5.72;;;4.18;;
35326;SDS011;21436;52.348;20.928;2023-07-31T02:54:34;5.03;;;3.95;;
35326;SDS011;21436;52.348;20.928;2023-07-31T02:57:02;4.93;;;3.97;;
35326;SDS011;21436;52.348;20.928;2023-07-31T02:59:29;4.95;;;4.28;;
35326;SDS011;21436;52.348;20.928;2023-07-31T03:01:57;5.50;;;4.05;;
35326;SDS011;21436;52.348;20.928;2023-07-31T03:04:25;8.35;;;4.72;;
35326;SDS011;21436;52.348;20.928;2023-07-31T03:06:53;6.45;;;4.05;;
35326;SDS011;21436;52.348;20.928;2023-07-31T03:09:20;4.35;;;3.88;;
35326;SDS011;21436;52.348;20.928;2023-07-31T03:11:47;7.40;;;4.30;;
35326;SDS011;21436;52.348;20.928;2023-07-31T03:14:15;5.50;;;4.28;;
35326;SDS011;21436;52.348;20.928;2023-07-31T03:16:44;6.13;;;4.47;;
35326;SDS011;21436;52.348;20.928;2023-07-31T03:19:11;9.70;;;4.55;;
35326;SDS011;21436;52.348;20.928;2023-07-31T03:21:39;6.43;;;4.30;;
35326;SDS011;21436;52.348;20.928;2023-07-31T03:24:06;5.78;;;4.18;;
35326;SDS011;21436;52.348;20.928;2023-07-31T03:26:34;4.93;;;4.43;;
35326;SDS011;21436;52.348;20.928;2023-07-31T03:29:04;6.45;;;4.22;;
35326;SDS011;21436;52.348;20.928;2023-07-31T03:31:31;7.05;;;4.90;;
35326;SDS011;21436;52.348;20.928;2023-07-31T03:33:58;8.10;;;4.55;;
35326;SDS011;21436;52.348;20.928;2023-07-31T03:36:26;8.13;;;4.53;;
35326;SDS011;21436;52.348;20.928;2023-07-31T03:38:54;9.68;;;4.45;;
35326;SDS011;21436;52.348;20.928;2023-07-31T03:41:21;7.22;;;4.38;;
35326;SDS011;21436;52.348;20.928;2023-07-31T03:43:50;6.30;;;3.97;;
35326;SDS011;21436;52.348;20.928;2023-07-31T03:46:23;5.78;;;4.32;;
35326;SDS011;21436;52.348;20.928;2023-07-31T03:48:51;7.82;;;4.90;;
35326;SDS011;21436;52.348;20.928;2023-07-31T03:51:19;6.70;;;4.65;;
35326;SDS011;21436;52.348;20.928;2023-07-31T03:53:46;5.35;;;4.25;;
35326;SDS011;21436;52.348;20.928;2023-07-31T03:56:14;8.23;;;4.70;;
35326;SDS011;21436;52.348;20.928;2023-07-31T03:58:41;8.32;;;5.00;;
35326;SDS011;21436;52.348;20.928;2023-07-31T04:01:09;7.68;;;4.78;;
35326;SDS011;21436;52.348;20.928;2023-07-31T04:03:36;9.07;;;4.93;;
35326;SDS011;21436;52.348;20.928;2023-07-31T04:06:04;6.28;;;4.57;;
35326;SDS011;21436;52.348;20.928;2023-07-31T04:08:31;5.65;;;4.00;;
35326;SDS011;21436;52.348;20.928;2023-07-31T04:10:59;6.97;;;4.57;;
35326;SDS011;21436;52.348;20.928;2023-07-31T04:13:26;21.17;;;4.55;;
35326;SDS011;21436;52.348;20.928;2023-07-31T04:15:55;6.10;;;4.43;;
35326;SDS011;21436;52.348;20.928;2023-07-31T04:18:24;5.82;;;3.92;;
35326;SDS011;21436;52.348;20.928;2023-07-31T04:20:52;5.82;;;4.43;;
35326;SDS011;21436;52.348;20.928;2023-07-31T04:23:19;7.47;;;4.15;;
35326;SDS011;21436;52.348;20.928;2023-07-31T04:25:47;6.30;;;3.97;;
35326;SDS011;21436;52.348;20.928;2023-07-31T04:28:14;7.20;;;3.88;;
35326;SDS011;21436;52.348;20.928;2023-07-31T04:30:42;5.47;;;4.10;;
35326;SDS011;21436;52.348;20.928;2023-07-31T04:33:10;5.63;;;4.07;;
35326;SDS011;21436;52.348;20.928;2023-07-31T04:35:37;5.55;;;3.97;;
35326;SDS011;21436;52.348;20.928;2023-07-31T04:38:04;8.30;;;4.32;;
35326;SDS011;21436;52.348;20.928;2023-07-31T04:40:32;7.75;;;4.25;;
35326;SDS011;21436;52.348;20.928;2023-07-31T04:42:59;5.57;;;3.70;;
35326;SDS011;21436;52.348;20.928;2023-07-31T04:45:27;7.80;;;3.90;;
35326;SDS011;21436;52.348;20.928;2023-07-31T04:47:54;6.22;;;4.00;;
35326;SDS011;21436;52.348;20.928;2023-07-31T04:50:22;4.75;;;3.83;;
35326;SDS011;21436;52.348;20.928;2023-07-31T04:52:49;5.50;;;3.85;;
35326;SDS011;21436;52.348;20.928;2023-07-31T04:55:17;7.22;;;3.70;;
35326;SDS011;21436;52.348;20.928;2023-07-31T04:57:44;5.13;;;3.55;;
35326;SDS011;21436;52.348;20.928;2023-07-31T05:00:12;6.63;;;4.10;;
35326;SDS011;21436;52.348;20.928;2023-07-31T05:02:39;5.75;;;3.95;;
35326;SDS011;21436;52.348;20.928;2023-07-31T05:05:07;8.68;;;3.95;;
35326;SDS011;21436;52.348;20.928;2023-07-31T05:07:34;4.80;;;3.13;;
35326;SDS011;21436;52.348;20.928;2023-07-31T05:10:02;9.40;;;3.47;;
35326;SDS011;21436;52.348;20.928;2023-07-31T05:12:30;4.97;;;3.42;;
35326;SDS011;21436;52.348;20.928;2023-07-31T05:14:57;5.50;;;3.42;;
35326;SDS011;21436;52.348;20.928;2023-07-31T05:17:24;7.47;;;3.58;;
35326;SDS011;21436;52.348;20.928;2023-07-31T05:19:52;11.05;;;3.63;;
35326;SDS011;21436;52.348;20.928;2023-07-31T05:22:19;10.93;;;3.33;;
35326;SDS011;21436;52.348;20.928;2023-07-31T05:24:47;5.88;;;3.15;;
35326;SDS011;21436;52.348;20.928;2023-07-31T05:27:14;6.03;;;3.22;;
35326;SDS011;21436;52.348;20.928;2023-07-31T05:29:45;7.00;;;3.60;;
35326;SDS011;21436;52.348;20.928;2023-07-31T05:32:12;6.72;;;3.30;;
35326;SDS011;21436;52.348;20.928;2023-07-31T05:34:40;12.85;;;4.20;;
35326;SDS011;21436;52.348;20.928;2023-07-31T05:37:07;6.07;;;3.35;;
35326;SDS011;21436;52.348;20.928;2023-07-31T05:39:36;4.78;;;2.97;;
35326;SDS011;21436;52.348;20.928;2023-07-31T05:42:03;5.40;;;3.28;;
35326;SDS011;21436;52.348;20.928;2023-07-31T05:44:31;5.38;;;3.30;;
35326;SDS011;21436;52.348;20.928;2023-07-31T05:46:59;7.07;;;3.45;;
35326;SDS011;21436;52.348;20.928;2023-07-31T05:49:26;4.93;;;3.17;;
35326;SDS011;21436;52.348;20.928;2023-07-31T05:51:53;4.80;;;3.30;;
35326;SDS011;21436;52.348;20.928;2023-07-31T05:54:21;4.90;;;3.30;;
35326;SDS011;21436;52.348;20.928;2023-07-31T05:56:48;5.70;;;3.30;;
35326;SDS011;21436;52.348;20.928;2023-07-31T05:59:16;6.68;;;3.67;;
35326;SDS011;21436;52.348;20.928;2023-07-31T06:01:43;4.18;;;3.17;;
35326;SDS011;21436;52.348;20.928;2023-07-31T06:04:11;4.75;;;2.95;;
35326;SDS011;21436;52.348;20.928;2023-07-31T06:06:38;5.13;;;2.90;;
35326;SDS011;21436;52.348;20.928;2023-07-31T06:09:06;5.03;;;2.97;;
35326;SDS011;21436;52.348;20.928;2023-07-31T06:11:33;4.32;;;2.85;;
35326;SDS011;21436;52.348;20.928;2023-07-31T06:14:01;5.35;;;3.10;;
35326;SDS011;21436;52.348;20.928;2023-07-31T06:16:28;3.38;;;2.88;;
35326;SDS011;21436;52.348;20.928;2023-07-31T06:18:55;6.25;;;3.30;;
35326;SDS011;21436;52.348;20.928;2023-07-31T06:21:23;4.43;;;2.95;;
35326;SDS011;21436;52.348;20.928;2023-07-31T06:23:50;6.75;;;3.45;;
35326;SDS011;21436;52.348;20.928;2023-07-31T06:26:17;5.55;;;3.00;;
35326;SDS011;21436;52.348;20.928;2023-07-31T06:28:45;5.25;;;2.95;;
35326;SDS011;21436;52.348;20.928;2023-07-31T06:31:13;6.70;;;2.90;;
35326;SDS011;21436;52.348;20.928;2023-07-31T06:33:41;4.57;;;2.90;;
35326;SDS011;21436;52.348;20.928;2023-07-31T06:36:08;5.03;;;3.17;;
35326;SDS011;21436;52.348;20.928;2023-07-31T06:38:35;5.45;;;2.78;;
35326;SDS011;21436;52.348;20.928;2023-07-31T06:41:04;4.05;;;3.00;;
35326;SDS011;21436;52.348;20.928;2023-07-31T06:43:31;5.93;;;2.90;;
35326;SDS011;21436;52.348;20.928;2023-07-31T06:46:00;6.35;;;3.03;;
35326;SDS011;21436;52.348;20.928;2023-07-31T06:48:33;5.93;;;3.05;;
35326;SDS011;21436;52.348;20.928;2023-07-31T06:51:00;5.75;;;3.00;;
35326;SDS011;21436;52.348;20.928;2023-07-31T06:53:28;7.72;;;3.28;;
35326;SDS011;21436;52.348;20.928;2023-07-31T06:55:56;4.85;;;2.70;;
35326;SDS011;21436;52.348;20.928;2023-07-31T06:58:23;8.90;;;2.85;;
35326;SDS011;21436;52.348;20.928;2023-07-31T07:00:51;7.35;;;2.90;;
35326;SDS011;21436;52.348;20.928;2023-07-31T07:03:18;4.53;;;3.08;;
35326;SDS011;21436;52.348;20.928;2023-07-31T07:05:46;3.47;;;3.03;;
35326;SDS011;21436;52.348;20.928;2023-07-31T07:08:14;7.68;;;3.13;;
35326;SDS011;21436;52.348;20.928;2023-07-31T07:10:41;7.60;;;2.78;;
35326;SDS011;21436;52.348;20.928;2023-07-31T07:13:09;5.43;;;2.58;;
35326;SDS011;21436;52.348;20.928;2023-07-31T07:15:36;4.38;;;2.78;;
35326;SDS011;21436;52.348;20.928;2023-07-31T07:18:04;5.43;;;3.08;;
35326;SDS011;21436;52.348;20.928;2023-07-31T07:20:32;3.83;;;2.80;;
35326;SDS011;21436;52.348;20.928;2023-07-31T07:22:59;4.57;;;2.67;;
35326;SDS011;21436;52.348;20.928;2023-07-31T07:25:27;3.92;;;2.50;;
35326;SDS011;21436;52.348;20.928;2023-07-31T07:27:55;4.53;;;2.55;;
35326;SDS011;21436;52.348;20.928;2023-07-31T07:30:22;4.32;;;2.85;;
35326;SDS011;21436;52.348;20.928;2023-07-31T07:32:52;5.75;;;2.95;;
35326;SDS011;21436;52.348;20.928;2023-07-31T07:35:19;3.03;;;2.35;;
35326;SDS011;21436;52.348;20.928;2023-07-31T07:37:50;5.47;;;2.83;;
35326;SDS011;21436;52.348;20.928;2023-07-31T07:40:19;3.67;;;2.58;;
35326;SDS011;21436;52.348;20.928;2023-07-31T07:42:48;4.95;;;2.42;;
35326;SDS011;21436;52.348;20.928;2023-07-31T07:45:15;3.97;;;2.55;;
35326;SDS011;21436;52.348;20.928;2023-07-31T07:47:44;2.92;;;2.30;;
35326;SDS011;21436;52.348;20.928;2023-07-31T07:50:11;3.50;;;3.00;;
35326;SDS011;21436;52.348;20.928;2023-07-31T07:52:39;7.00;;;2.78;;
35326;SDS011;21436;52.348;20.928;2023-07-31T07:55:06;4.60;;;2.60;;
35326;SDS011;21436;52.348;20.928;2023-07-31T07:57:34;5.63;;;2.33;;
35326;SDS011;21436;52.348;20.928;2023-07-31T08:00:02;6.95;;;3.15;;
35326;SDS011;21436;52.348;20.928;2023-07-31T08:02:40;6.32;;;2.70;;
35326;SDS011;21436;52.348;20.928;2023-07-31T08:05:07;4.65;;;2.60;;
35326;SDS011;21436;52.348;20.928;2023-07-31T08:07:35;6.57;;;2.50;;
35326;SDS011;21436;52.348;20.928;2023-07-31T08:10:03;7.43;;;2.75;;
35326;SDS011;21436;52.348;20.928;2023-07-31T08:12:31;13.15;;;3.30;;
35326;SDS011;21436;52.348;20.928;2023-07-31T08:14:58;5.82;;;2.67;;
35326;SDS011;21436;52.348;20.928;2023-07-31T08:17:27;5.38;;;2.88;;
35326;SDS011;21436;52.348;20.928;2023-07-31T08:19:55;4.18;;;2.40;;
35326;SDS011;21436;52.348;20.928;2023-07-31T08:22:25;6.85;;;3.10;;
35326;SDS011;21436;52.348;20.928;2023-07-31T08:24:53;4.47;;;2.22;;
35326;SDS011;21436;52.348;20.928;2023-07-31T08:27:20;4.85;;;2.25;;
35326;SDS011;21436;52.348;20.928;2023-07-31T08:29:48;4.65;;;2.40;;
35326;SDS011;21436;52.348;20.928;2023-07-31T08:32:15;2.97;;;2.25;;
35326;SDS011;21436;52.348;20.928;2023-07-31T08:34:43;4.05;;;2.78;;
35326;SDS011;21436;52.348;20.928;2023-07-31T08:37:11;6.50;;;2.45;;
35326;SDS011;21436;52.348;20.928;2023-07-31T08:39:39;7.63;;;2.40;;
35326;SDS011;21436;52.348;20.928;2023-07-31T08:42:09;2.97;;;2.20;;
35326;SDS011;21436;52.348;20.928;2023-07-31T08:44:37;5.43;;;2.58;;
35326;SDS011;21436;52.348;20.928;2023-07-31T08:47:05;3.22;;;2.22;;
35326;SDS011;21436;52.348;20.928;2023-07-31T08:49:33;8.85;;;2.80;;
35326;SDS011;21436;52.348;20.928;2023-07-31T08:52:01;7.05;;;2.22;;
35326;SDS011;21436;52.348;20.928;2023-07-31T08:54:29;6.95;;;2.20;;
35326;SDS011;21436;52.348;20.928;2023-07-31T08:56:58;7.78;;;2.42;;
35326;SDS011;21436;52.348;20.928;2023-07-31T08:59:30;7.32;;;2.83;;
35326;SDS011;21436;52.348;20.928;2023-07-31T09:02:00;5.88;;;2.45;;
35326;SDS011;21436;52.348;20.928;2023-07-31T09:04:32;5.28;;;2.30;;
35326;SDS011;21436;52.348;20.928;2023-07-31T09:07:01;3.50;;;1.98;;
35326;SDS011;21436;52.348;20.928;2023-07-31T09:09:31;4.00;;;2.00;;
35326;SDS011;21436;52.348;20.928;2023-07-31T09:11:59;4.53;;;2.20;;
35326;SDS011;21436;52.348;20.928;2023-07-31T09:14:26;4.22;;;2.40;;
35326;SDS011;21436;52.348;20.928;2023-07-31T09:16:54;3.22;;;2.20;;
35326;SDS011;21436;52.348;20.928;2023-07-31T09:19:32;2.95;;;1.92;;
35326;SDS011;21436;52.348;20.928;2023-07-31T09:22:01;3.10;;;1.67;;
35326;SDS011;21436;52.348;20.928;2023-07-31T09:24:29;5.22;;;1.67;;
35326;SDS011;21436;52.348;20.928;2023-07-31T09:27:00;5.78;;;2.63;;
35326;SDS011;21436;52.348;20.928;2023-07-31T09:29:28;4.07;;;1.70;;
35326;SDS011;21436;52.348;20.928;2023-07-31T09:31:57;3.45;;;1.88;;
35326;SDS011;21436;52.348;20.928;2023-07-31T09:34:30;3.60;;;1.48;;
35326;SDS011;21436;52.348;20.928;2023-07-31T09:37:04;1.85;;;1.45;;
35326;SDS011;21436;52.348;20.928;2023-07-31T09:39:32;5.38;;;2.78;;
35326;SDS011;21436;52.348;20.928;2023-07-31T09:42:01;3.72;;;1.27;;
35326;SDS011;21436;52.348;20.928;2023-07-31T09:44:40;5.40;;;1.48;;
35326;SDS011;21436;52.348;20.928;2023-07-31T09:49:57;5.57;;;1.50;;
35326;SDS011;21436;52.348;20.928;2023-07-31T09:52:27;4.82;;;1.65;;
35326;SDS011;21436;52.348;20.928;2023-07-31T09:54:54;7.00;;;2.30;;
35326;SDS011;21436;52.348;20.928;2023-07-31T09:57:22;2.70;;;1.50;;
35326;SDS011;21436;52.348;20.928;2023-07-31T09:59:52;3.08;;;1.50;;
35326;SDS011;21436;52.348;20.928;2023-07-31T10:02:21;5.45;;;1.50;;
35326;SDS011;21436;52.348;20.928;2023-07-31T10:04:50;7.78;;;1.70;;
35326;SDS011;21436;52.348;20.928;2023-07-31T10:07:18;4.35;;;1.77;;
35326;SDS011;21436;52.348;20.928;2023-07-31T10:09:48;1.40;;;1.20;;
35326;SDS011;21436;52.348;20.928;2023-07-31T10:12:16;3.05;;;1.50;;
35326;SDS011;21436;52.348;20.928;2023-07-31T10:14:46;6.05;;;1.60;;
35326;SDS011;21436;52.348;20.928;2023-07-31T10:17:16;2.60;;;1.50;;
35326;SDS011;21436;52.348;20.928;2023-07-31T10:19:44;3.67;;;1.60;;
35326;SDS011;21436;52.348;20.928;2023-07-31T10:22:12;5.30;;;1.70;;
35326;SDS011;21436;52.348;20.928;2023-07-31T10:24:50;4.45;;;1.77;;
35326;SDS011;21436;52.348;20.928;2023-07-31T10:27:20;4.35;;;2.08;;
35326;SDS011;21436;52.348;20.928;2023-07-31T10:29:47;3.33;;;1.50;;
35326;SDS011;21436;52.348;20.928;2023-07-31T10:32:15;3.63;;;1.70;;
35326;SDS011;21436;52.348;20.928;2023-07-31T10:34:43;3.00;;;1.52;;
35326;SDS011;21436;52.348;20.928;2023-07-31T10:40:04;5.28;;;1.67;;
35326;SDS011;21436;52.348;20.928;2023-07-31T10:42:35;2.90;;;1.40;;
35326;SDS011;21436;52.348;20.928;2023-07-31T10:45:26;3.00;;;1.55;;
35326;SDS011;21436;52.348;20.928;2023-07-31T10:50:26;4.50;;;2.25;;
35326;SDS011;21436;52.348;20.928;2023-07-31T10:52:56;4.85;;;1.65;;
35326;SDS011;21436;52.348;20.928;2023-07-31T10:55:32;1.63;;;1.40;;
35326;SDS011;21436;52.348;20.928;2023-07-31T10:58:10;3.35;;;1.63;;
35326;SDS011;21436;52.348;20.928;2023-07-31T11:00:41;2.38;;;1.27;;
35326;SDS011;21436;52.348;20.928;2023-07-31T11:03:11;2.90;;;1.20;;
35326;SDS011;21436;52.348;20.928;2023-07-31T11:10:42;3.42;;;1.38;;
35326;SDS011;21436;52.348;20.928;2023-07-31T11:13:11;5.00;;;1.30;;
35326;SDS011;21436;52.348;20.928;2023-07-31T11:15:38;3.75;;;1.58;;
35326;SDS011;21436;52.348;20.928;2023-07-31T11:18:06;3.20;;;1.55;;
35326;SDS011;21436;52.348;20.928;2023-07-31T11:20:35;2.92;;;1.55;;
35326;SDS011;21436;52.348;20.928;2023-07-31T11:23:15;3.92;;;1.58;;
35326;SDS011;21436;52.348;20.928;2023-07-31T11:26:00;5.28;;;1.20;;
35326;SDS011;21436;52.348;20.928;2023-07-31T11:28:32;2.78;;;1.33;;
35326;SDS011;21436;52.348;20.928;2023-07-31T11:31:02;2.70;;;1.30;;
35326;SDS011;21436;52.348;20.928;2023-07-31T11:33:31;2.17;;;1.33;;
35326;SDS011;21436;52.348;20.928;2023-07-31T11:35:58;2.10;;;1.30;;
35326;SDS011;21436;52.348;20.928;2023-07-31T11:38:26;6.78;;;1.60;;
35326;SDS011;21436;52.348;20.928;2023-07-31T11:40:57;2.85;;;1.48;;
35326;SDS011;21436;52.348;20.928;2023-07-31T11:43:26;3.72;;;1.27;;
35326;SDS011;21436;52.348;20.928;2023-07-31T11:45:57;5.03;;;1.20;;
35326;SDS011;21436;52.348;20.928;2023-07-31T11:48:27;4.00;;;1.13;;
35326;SDS011;21436;52.348;20.928;2023-07-31T11:50:59;2.35;;;1.50;;
35326;SDS011;21436;52.348;20.928;2023-07-31T11:53:31;8.73;;;1.52;;
35326;SDS011;21436;52.348;20.928;2023-07-31T11:56:00;4.43;;;1.65;;
35326;SDS011;21436;52.348;20.928;2023-07-31T11:58:31;1.65;;;1.10;;
35326;SDS011;21436;52.348;20.928;2023-07-31T12:01:01;2.63;;;1.48;;
35326;SDS011;21436;52.348;20.928;2023-07-31T12:03:29;2.65;;;1.27;;
35326;SDS011;21436;52.348;20.928;2023-07-31T12:05:57;5.45;;;1.42;;
35326;SDS011;21436;52.348;20.928;2023-07-31T12:08:27;2.67;;;1.25;;
35326;SDS011;21436;52.348;20.928;2023-07-31T12:11:01;2.92;;;1.45;;
35326;SDS011;21436;52.348;20.928;2023-07-31T12:13:31;2.85;;;1.20;;
35326;SDS011;21436;52.348;20.928;2023-07-31T12:16:00;2.63;;;1.50;;
35326;SDS011;21436;52.348;20.928;2023-07-31T12:18:35;4.63;;;1.38;;
35326;SDS011;21436;52.348;20.928;2023-07-31T12:21:05;4.20;;;1.40;;
35326;SDS011;21436;52.348;20.928;2023-07-31T12:23:34;3.47;;;1.27;;
35326;SDS011;21436;52.348;20.928;2023-07-31T12:26:06;3.13;;;1.60;;
35326;SDS011;21436;52.348;20.928;2023-07-31T12:28:42;3.50;;;1.30;;
35326;SDS011;21436;52.348;20.928;2023-07-31T12:31:11;3.05;;;1.42;;
35326;SDS011;21436;52.348;20.928;2023-07-31T12:33:41;2.17;;;1.40;;
35326;SDS011;21436;52.348;20.928;2023-07-31T12:36:10;3.08;;;1.67;;
35326;SDS011;21436;52.348;20.928;2023-07-31T12:38:43;4.63;;;1.55;;
35326;SDS011;21436;52.348;20.928;2023-07-31T12:41:10;4.68;;;1.60;;
35326;SDS011;21436;52.348;20.928;2023-07-31T12:43:40;2.65;;;1.40;;
35326;SDS011;21436;52.348;20.928;2023-07-31T12:46:08;7.65;;;1.40;;
35326;SDS011;21436;52.348;20.928;2023-07-31T12:48:37;2.13;;;1.40;;
35326;SDS011;21436;52.348;20.928;2023-07-31T12:51:05;3.13;;;1.10;;
35326;SDS011;21436;52.348;20.928;2023-07-31T12:53:36;5.90;;;1.45;;
35326;SDS011;21436;52.348;20.928;2023-07-31T12:56:04;2.25;;;1.50;;
35326;SDS011;21436;52.348;20.928;2023-07-31T12:58:32;10.70;;;2.28;;
35326;SDS011;21436;52.348;20.928;2023-07-31T13:00:59;4.93;;;1.70;;
35326;SDS011;21436;52.348;20.928;2023-07-31T13:03:27;2.13;;;1.60;;
35326;SDS011;21436;52.348;20.928;2023-07-31T13:05:54;2.63;;;1.55;;
35326;SDS011;21436;52.348;20.928;2023-07-31T13:08:22;4.20;;;2.28;;
35326;SDS011;21436;52.348;20.928;2023-07-31T13:10:50;3.47;;;1.67;;
35326;SDS011;21436;52.348;20.928;2023-07-31T13:13:18;4.38;;;1.65;;
35326;SDS011;21436;52.348;20.928;2023-07-31T13:15:45;2.75;;;1.48;;
35326;SDS011;21436;52.348;20.928;2023-07-31T13:18:13;3.38;;;1.70;;
35326;SDS011;21436;52.348;20.928;2023-07-31T13:20:41;7.78;;;1.77;;
35326;SDS011;21436;52.348;20.928;2023-07-31T13:23:09;6.07;;;2.35;;
35326;SDS011;21436;52.348;20.928;2023-07-31T13:25:36;4.05;;;1.45;;
35326;SDS011;21436;52.348;20.928;2023-07-31T13:28:04;2.38;;;1.48;;
35326;SDS011;21436;52.348;20.928;2023-07-31T13:30:32;2.40;;;1.50;;
35326;SDS011;21436;52.348;20.928;2023-07-31T13:33:01;4.35;;;1.67;;
35326;SDS011;21436;52.348;20.928;2023-07-31T13:35:29;5.47;;;1.63;;
35326;SDS011;21436;52.348;20.928;2023-07-31T13:37:59;3.00;;;1.60;;
35326;SDS011;21436;52.348;20.928;2023-07-31T13:40:26;5.72;;;2.10;;
35326;SDS011;21436;52.348;20.928;2023-07-31T13:42:54;5.13;;;1.50;;
35326;SDS011;21436;52.348;20.928;2023-07-31T13:45:22;8.65;;;1.75;;
35326;SDS011;21436;52.348;20.928;2023-07-31T13:47:50;3.47;;;2.30;;
35326;SDS011;21436;52.348;20.928;2023-07-31T13:50:18;3.22;;;1.75;;
35326;SDS011;21436;52.348;20.928;2023-07-31T13:52:48;8.27;;;1.77;;
35326;SDS011;21436;52.348;20.928;2023-07-31T13:55:16;5.47;;;1.95;;
35326;SDS011;21436;52.348;20.928;2023-07-31T13:57:43;3.72;;;1.67;;
35326;SDS011;21436;52.348;20.928;2023-07-31T14:00:11;2.33;;;1.58;;
35326;SDS011;21436;52.348;20.928;2023-07-31T14:02:39;5.00;;;1.73;;
35326;SDS011;21436;52.348;20.928;2023-07-31T14:05:07;2.85;;;2.03;;
35326;SDS011;21436;52.348;20.928;2023-07-31T14:07:36;6.70;;;1.85;;
35326;SDS011;21436;52.348;20.928;2023-07-31T14:10:04;6.28;;;2.40;;
35326;SDS011;21436;52.348;20.928;2023-07-31T14:12:32;4.28;;;1.30;;
35326;SDS011;21436;52.348;20.928;2023-07-31T14:15:09;4.70;;;1.75;;
35326;SDS011;21436;52.348;20.928;2023-07-31T14:17:37;28.42;;;3.03;;
35326;SDS011;21436;52.348;20.928;2023-07-31T14:20:05;5.30;;;2.03;;
35326;SDS011;21436;52.348;20.928;2023-07-31T14:22:33;3.78;;;1.83;;
35326;SDS011;21436;52.348;20.928;2023-07-31T14:25:01;4.70;;;1.42;;
35326;SDS011;21436;52.348;20.928;2023-07-31T14:27:29;4.40;;;1.35;;
35326;SDS011;21436;52.348;20.928;2023-07-31T14:29:56;3.35;;;1.80;;
35326;SDS011;21436;52.348;20.928;2023-07-31T14:32:24;3.80;;;1.92;;
35326;SDS011;21436;52.348;20.928;2023-07-31T14:34:52;9.63;;;1.70;;
35326;SDS011;21436;52.348;20.928;2023-07-31T14:37:22;4.43;;;1.60;;
35326;SDS011;21436;52.348;20.928;2023-07-31T14:39:49;2.78;;;1.52;;
35326;SDS011;21436;52.348;20.928;2023-07-31T14:42:17;4.72;;;1.77;;
35326;SDS011;21436;52.348;20.928;2023-07-31T14:44:46;4.40;;;1.33;;
35326;SDS011;21436;52.348;20.928;2023-07-31T14:47:14;5.30;;;1.55;;
35326;SDS011;21436;52.348;20.928;2023-07-31T14:49:41;5.32;;;1.95;;
35326;SDS011;21436;52.348;20.928;2023-07-31T14:52:09;3.50;;;1.70;;
35326;SDS011;21436;52.348;20.928;2023-07-31T14:54:36;4.22;;;1.83;;
35326;SDS011;21436;52.348;20.928;2023-07-31T14:57:04;6.68;;;1.58;;